createdAt,value
2023-11-13T00:00:30.231Z,3.90
2023-11-13T00:05:36.009Z,5.57
2023-11-13T00:08:08.744Z,5.00
2023-11-13T00:10:41.617Z,5.90
2023-11-13T00:13:14.431Z,7.53
2023-11-13T00:15:47.250Z,3.55
2023-11-13T00:18:20.017Z,1.95
2023-11-13T00:20:53.332Z,3.15
2023-11-13T00:23:26.326Z,2.08
2023-11-13T00:25:59.100Z,1.85
2023-11-13T00:28:31.854Z,5.07
2023-11-13T00:31:05.508Z,2.80
2023-11-13T00:33:38.303Z,3.42
2023-11-13T00:36:11.194Z,4.20
2023-11-13T00:38:44.108Z,5.50
2023-11-13T00:41:18.839Z,1.67
2023-11-13T00:43:51.738Z,3.53
2023-11-13T00:46:24.670Z,3.65
2023-11-13T00:48:57.452Z,3.42
2023-11-13T00:51:30.669Z,6.15
2023-11-13T00:54:03.442Z,2.80
2023-11-13T00:56:36.193Z,8.88
2023-11-13T00:59:09.013Z,8.52
2023-11-13T01:01:41.785Z,3.28
2023-11-13T01:04:14.728Z,4.35
2023-11-13T01:06:49.831Z,1.40
2023-11-13T01:09:23.269Z,3.50
2023-11-13T01:11:56.059Z,7.75
2023-11-13T01:14:28.975Z,7.03
2023-11-13T01:17:01.916Z,8.40
2023-11-13T01:19:34.847Z,5.20
2023-11-13T01:22:07.935Z,7.40
2023-11-13T01:24:40.670Z,5.38
2023-11-13T01:27:13.569Z,3.03
2023-11-13T01:29:46.362Z,7.22
2023-11-13T01:32:19.204Z,2.45
2023-11-13T01:34:52.100Z,4.90
2023-11-13T01:37:25.822Z,6.47
2023-11-13T01:39:58.962Z,5.15
2023-11-13T01:42:31.764Z,4.97
2023-11-13T01:45:04.773Z,3.60
2023-11-13T01:47:39.385Z,8.18
2023-11-13T01:50:12.360Z,7.20
2023-11-13T01:52:45.634Z,8.80
2023-11-13T01:55:18.612Z,5.28
2023-11-13T02:00:24.054Z,3.35
2023-11-13T02:02:59.993Z,4.13
2023-11-13T02:05:33.912Z,4.00
2023-11-13T02:08:06.757Z,5.55
2023-11-13T02:10:43.498Z,5.30
2023-11-13T02:13:16.606Z,4.13
2023-11-13T02:20:57.880Z,5.45
2023-11-13T02:23:31.017Z,5.05
2023-11-13T02:28:41.158Z,5.72
2023-11-13T02:31:14.033Z,4.35
2023-11-13T02:36:20.575Z,3.80
2023-11-13T02:38:53.272Z,5.75
2023-11-13T02:41:26.012Z,3.13
2023-11-13T02:43:58.758Z,4.72
2023-11-13T02:46:31.683Z,3.95
2023-11-13T02:51:37.592Z,10.38
2023-11-13T02:54:10.580Z,5.07
2023-11-13T02:59:16.567Z,4.22
2023-11-13T03:01:49.602Z,7.57
2023-11-13T03:04:22.650Z,4.60
2023-11-13T03:06:55.933Z,7.07
2023-11-13T03:09:28.917Z,4.28
2023-11-13T03:12:01.859Z,5.63
2023-11-13T03:14:35.247Z,6.47
2023-11-13T03:19:42.457Z,6.28
2023-11-13T03:22:15.471Z,4.90
2023-11-13T03:27:21.115Z,10.27
2023-11-13T03:29:54.892Z,8.02
2023-11-13T03:32:27.854Z,6.60
2023-11-13T03:37:36.102Z,3.63
2023-11-13T03:40:09.637Z,8.43
2023-11-13T03:42:42.716Z,5.05
2023-11-13T03:45:16.454Z,5.40
2023-11-13T03:47:50.524Z,8.18
2023-11-13T03:50:23.322Z,7.28
2023-11-13T03:52:56.068Z,5.28
2023-11-13T03:55:28.828Z,5.53
2023-11-13T03:58:01.870Z,4.15
2023-11-13T04:00:36.302Z,4.60
2023-11-13T04:03:09.168Z,4.28
2023-11-13T04:05:42.840Z,7.03
2023-11-13T04:08:15.610Z,4.47
2023-11-13T04:10:49.519Z,8.70
2023-11-13T04:13:22.669Z,5.38
2023-11-13T04:18:29.788Z,3.13
2023-11-13T04:21:02.670Z,3.05
2023-11-13T04:23:35.553Z,8.00
2023-11-13T04:26:10.440Z,5.05
2023-11-13T04:28:43.244Z,6.57
2023-11-13T04:31:17.188Z,10.35
2023-11-13T04:33:50.976Z,6.18
2023-11-13T04:36:23.652Z,4.53
2023-11-13T04:38:56.505Z,3.50
2023-11-13T04:41:29.251Z,6.30
2023-11-13T04:44:02.284Z,8.80
2023-11-13T04:49:07.832Z,6.30
2023-11-13T04:51:44.069Z,6.93
2023-11-13T04:54:16.916Z,4.30
2023-11-13T04:56:49.667Z,4.65
2023-11-13T04:59:22.395Z,5.03
2023-11-13T05:01:56.123Z,4.93
2023-11-13T05:04:29.065Z,6.75
2023-11-13T05:07:01.973Z,4.53
2023-11-13T05:09:34.825Z,3.90
2023-11-13T05:12:08.448Z,5.70
2023-11-13T05:14:42.289Z,4.10
2023-11-13T05:17:15.095Z,7.30
2023-11-13T05:19:48.497Z,3.63
2023-11-13T05:22:21.561Z,9.13
2023-11-13T05:24:54.799Z,7.80
2023-11-13T05:27:27.716Z,5.38
2023-11-13T05:30:00.570Z,6.30
2023-11-13T05:32:34.076Z,6.85
2023-11-13T05:35:08.105Z,6.53
2023-11-13T05:37:40.954Z,5.95
2023-11-13T05:40:18.022Z,6.20
2023-11-13T05:42:50.805Z,5.97
2023-11-13T05:45:23.607Z,11.70
2023-11-13T05:47:56.390Z,7.57
2023-11-13T05:50:29.604Z,2.20
2023-11-13T05:53:02.504Z,4.78
2023-11-13T05:55:38.249Z,9.98
2023-11-13T05:58:11.102Z,9.95
2023-11-13T06:00:44.847Z,6.78
2023-11-13T06:03:18.308Z,4.88
2023-11-13T06:05:51.551Z,6.45
2023-11-13T06:08:24.658Z,7.72
2023-11-13T06:13:32.100Z,6.20
2023-11-13T06:16:05.236Z,21.35
2023-11-13T06:21:21.285Z,6.87
2023-11-13T06:26:26.684Z,7.38
2023-11-13T06:28:59.482Z,6.05
2023-11-13T06:31:32.217Z,10.35
2023-11-13T06:34:09.420Z,9.85
2023-11-13T06:36:45.219Z,9.18
2023-11-13T06:39:18.977Z,10.35
2023-11-13T06:41:51.888Z,8.13
2023-11-13T06:44:24.678Z,12.07
2023-11-13T06:46:57.542Z,10.32
2023-11-13T06:49:30.467Z,10.57
2023-11-13T06:52:04.000Z,11.55
2023-11-13T06:54:37.138Z,8.70
2023-11-13T06:59:48.536Z,6.33
2023-11-13T07:02:22.751Z,13.73
2023-11-13T07:04:56.240Z,10.15
2023-11-13T07:07:29.244Z,12.05
2023-11-13T07:10:03.000Z,10.32
2023-11-13T07:12:37.095Z,6.13
2023-11-13T07:15:10.298Z,12.45
2023-11-13T07:17:43.108Z,12.90
2023-11-13T07:20:19.716Z,9.75
2023-11-13T07:22:53.870Z,6.72
2023-11-13T07:25:26.703Z,6.30
2023-11-13T07:27:59.834Z,10.43
2023-11-13T07:30:34.543Z,11.57
2023-11-13T07:33:07.516Z,12.95
2023-11-13T07:38:14.773Z,9.50
2023-11-13T07:40:49.239Z,11.95
2023-11-13T07:43:23.209Z,9.45
2023-11-13T07:45:56.541Z,5.20
2023-11-13T07:48:29.431Z,13.80
2023-11-13T07:51:06.270Z,6.82
2023-11-13T07:53:39.934Z,12.10
2023-11-13T07:56:13.351Z,11.60
2023-11-13T07:58:46.112Z,8.18
2023-11-13T08:01:19.464Z,12.02
2023-11-13T08:03:53.592Z,12.02
2023-11-13T08:06:26.349Z,8.27
2023-11-13T08:08:59.128Z,6.50
2023-11-13T08:11:31.952Z,7.10
2023-11-13T08:14:04.857Z,14.88
2023-11-13T08:16:38.292Z,10.07
2023-11-13T08:19:11.501Z,9.27
2023-11-13T08:24:21.187Z,9.63
2023-11-13T08:27:10.763Z,6.55
2023-11-13T08:29:45.491Z,6.75
2023-11-13T08:32:24.168Z,8.70
2023-11-13T08:34:57.441Z,5.57
2023-11-13T08:37:32.420Z,9.93
2023-11-13T08:40:06.361Z,10.10
2023-11-13T08:42:43.298Z,14.20
2023-11-13T08:45:19.219Z,9.93
2023-11-13T08:47:54.500Z,12.68
2023-11-13T08:50:27.522Z,9.35
2023-11-13T08:55:33.324Z,12.35
2023-11-13T09:00:45.321Z,15.15
2023-11-13T09:03:18.365Z,7.40
2023-11-13T09:08:25.040Z,11.88
2023-11-13T09:10:57.683Z,13.20
2023-11-13T09:13:30.721Z,8.38
2023-11-13T09:18:39.424Z,10.15
2023-11-13T09:21:12.155Z,6.18
2023-11-13T09:23:45.388Z,7.32
2023-11-13T09:26:18.242Z,12.27
2023-11-13T09:31:23.535Z,10.30
2023-11-13T09:33:56.301Z,7.65
2023-11-13T09:36:29.607Z,10.10
2023-11-13T09:39:04.933Z,10.02
2023-11-13T09:41:46.540Z,6.00
2023-11-13T09:44:22.197Z,9.05
2023-11-13T09:46:55.542Z,12.68
2023-11-13T09:49:32.332Z,5.07
2023-11-13T09:52:07.896Z,9.00
2023-11-13T09:54:44.101Z,8.35
2023-11-13T09:57:18.056Z,9.32
2023-11-13T09:59:53.389Z,11.73
2023-11-13T10:02:26.728Z,11.02
2023-11-13T10:04:59.823Z,7.78
2023-11-13T10:07:32.735Z,13.02
2023-11-13T10:10:07.722Z,16.58
2023-11-13T10:12:40.766Z,8.90
2023-11-13T10:15:16.697Z,12.25
2023-11-13T10:17:49.914Z,12.52
2023-11-13T10:20:23.056Z,12.70
2023-11-13T10:23:01.056Z,7.32
2023-11-13T10:25:54.180Z,6.47
2023-11-13T10:28:38.534Z,6.07
2023-11-13T10:31:15.530Z,12.35
2023-11-13T10:34:02.097Z,9.18
2023-11-13T10:36:34.932Z,15.23
2023-11-13T10:39:17.028Z,10.82
2023-11-13T10:41:54.555Z,15.13
2023-11-13T10:44:29.149Z,5.38
2023-11-13T10:47:02.197Z,8.52
2023-11-13T10:49:35.535Z,7.18
2023-11-13T10:52:10.741Z,12.27
2023-11-13T10:54:44.421Z,12.90
2023-11-13T10:57:21.703Z,13.20
2023-11-13T10:59:57.278Z,10.68
2023-11-13T11:02:46.943Z,11.00
2023-11-13T11:05:24.581Z,10.23
2023-11-13T11:07:58.109Z,8.55
2023-11-13T11:10:33.966Z,16.33
2023-11-13T11:13:11.079Z,9.18
2023-11-13T11:15:53.606Z,9.63
2023-11-13T11:18:49.371Z,10.85
2023-11-13T11:21:46.943Z,10.52
2023-11-13T11:24:41.089Z,9.30
2023-11-13T11:27:42.571Z,10.00
2023-11-13T11:30:24.126Z,9.13
2023-11-13T11:33:08.503Z,12.77
2023-11-13T11:35:44.561Z,10.65
2023-11-13T11:38:19.540Z,6.60
2023-11-13T11:40:52.655Z,6.78
2023-11-13T11:43:40.111Z,4.90
2023-11-13T11:46:15.086Z,4.70
2023-11-13T11:48:49.573Z,14.10
2023-11-13T11:51:26.035Z,7.43
2023-11-13T11:53:59.858Z,9.18
2023-11-13T11:56:32.761Z,9.63
2023-11-13T11:59:10.054Z,11.07
2023-11-13T12:01:42.764Z,9.43
2023-11-13T12:04:15.797Z,14.93
2023-11-13T12:09:23.828Z,14.82
2023-11-13T12:11:56.683Z,14.27
2023-11-13T12:14:29.514Z,9.55
2023-11-13T12:17:04.906Z,10.20
2023-11-13T12:19:37.928Z,8.73
2023-11-13T12:24:43.826Z,8.03
2023-11-13T12:27:16.945Z,7.03
2023-11-13T12:32:39.294Z,12.23
2023-11-13T12:35:18.706Z,12.23
2023-11-13T12:37:52.940Z,9.20
2023-11-13T12:40:26.665Z,8.38
2023-11-13T12:43:02.096Z,11.82
2023-11-13T12:45:36.260Z,7.40
2023-11-13T12:48:10.900Z,9.05
2023-11-13T12:50:49.058Z,12.82
2023-11-13T12:53:23.265Z,5.05
2023-11-13T12:55:58.043Z,7.10
2023-11-13T12:58:30.787Z,7.80
2023-11-13T13:01:06.969Z,6.05
2023-11-13T13:03:41.529Z,7.25
2023-11-13T13:06:14.858Z,7.82
2023-11-13T13:08:53.585Z,11.02
2023-11-13T13:11:26.690Z,9.95
2023-11-13T13:13:59.591Z,10.55
2023-11-13T13:16:32.468Z,5.95
2023-11-13T13:21:39.496Z,10.10
2023-11-13T13:24:12.182Z,21.20
2023-11-13T13:26:45.741Z,8.80
2023-11-13T13:29:22.212Z,8.75
2023-11-13T13:31:55.420Z,12.80
2023-11-13T13:34:28.139Z,7.97
2023-11-13T13:37:01.367Z,10.07
2023-11-13T13:39:39.316Z,11.93
2023-11-13T13:42:14.256Z,10.10
2023-11-13T13:44:50.170Z,10.10
2023-11-13T13:47:23.084Z,14.65
2023-11-13T13:49:55.784Z,9.75
2023-11-13T13:52:32.492Z,10.07
2023-11-13T13:55:11.657Z,8.68
2023-11-13T13:57:46.609Z,7.22
2023-11-13T14:03:06.566Z,6.57
2023-11-13T14:05:43.520Z,11.88
2023-11-13T14:08:21.783Z,8.68
2023-11-13T14:10:55.989Z,7.57
2023-11-13T14:13:31.090Z,13.13
2023-11-13T14:16:08.751Z,6.57
2023-11-13T14:18:43.248Z,10.70
2023-11-13T14:21:16.100Z,9.77
2023-11-13T14:23:50.075Z,18.38
2023-11-13T14:26:23.260Z,13.88
2023-11-13T14:28:56.863Z,7.13
2023-11-13T14:31:29.646Z,6.97
2023-11-13T14:34:04.297Z,8.68
2023-11-13T14:36:37.929Z,8.13
2023-11-13T14:39:10.714Z,8.63
2023-11-13T14:41:44.353Z,18.30
2023-11-13T14:44:17.457Z,7.47
2023-11-13T14:49:23.455Z,10.73
2023-11-13T14:51:56.213Z,5.82
2023-11-13T14:54:28.956Z,10.07
2023-11-13T14:57:02.509Z,8.65
2023-11-13T14:59:35.349Z,10.75
2023-11-13T15:02:08.495Z,7.95
2023-11-13T15:04:41.204Z,7.50
2023-11-13T15:07:17.139Z,9.77
2023-11-13T15:09:49.895Z,8.02
2023-11-13T15:12:26.222Z,9.93
2023-11-13T15:15:02.847Z,10.63
2023-11-13T15:17:38.239Z,8.20
2023-11-13T15:20:12.564Z,14.30
2023-11-13T15:25:25.588Z,6.90
2023-11-13T15:27:58.428Z,6.20
2023-11-13T15:30:31.276Z,13.65
2023-11-13T15:33:05.471Z,9.63
2023-11-13T15:35:39.192Z,11.52
2023-11-13T15:38:12.038Z,10.27
2023-11-13T15:40:44.894Z,13.68
2023-11-13T15:43:17.759Z,16.20
2023-11-13T15:45:50.750Z,10.55
2023-11-13T15:50:56.397Z,10.45
2023-11-13T15:53:29.395Z,7.80
2023-11-13T15:58:34.852Z,10.60
2023-11-13T16:03:44.904Z,14.02
2023-11-13T16:06:18.431Z,8.88
2023-11-13T16:08:51.328Z,9.60
2023-11-13T16:11:24.076Z,13.68
2023-11-13T16:13:57.235Z,13.70
2023-11-13T16:16:30.156Z,10.93
2023-11-13T16:21:36.284Z,8.93
2023-11-13T16:24:09.430Z,14.27
2023-11-13T16:26:43.676Z,11.20
2023-11-13T16:29:18.478Z,10.75
2023-11-13T16:31:51.767Z,10.60
2023-11-13T16:34:24.619Z,11.05
2023-11-13T16:36:57.397Z,5.57
2023-11-13T16:39:30.645Z,15.10
2023-11-13T16:42:04.890Z,21.83
2023-11-13T16:44:37.880Z,9.25
2023-11-13T16:47:10.678Z,11.77
2023-11-13T16:49:44.478Z,6.72
2023-11-13T16:52:17.900Z,9.93
2023-11-13T16:54:51.805Z,8.45
2023-11-13T16:57:24.451Z,9.77
2023-11-13T16:59:57.148Z,16.15
2023-11-13T17:02:30.111Z,14.38
2023-11-13T17:07:35.903Z,10.15
2023-11-13T17:10:11.040Z,18.38
2023-11-13T17:12:44.261Z,19.88
2023-11-13T17:15:17.010Z,13.52
2023-11-13T17:17:49.762Z,15.10
2023-11-13T17:20:22.721Z,13.43
2023-11-13T17:22:57.839Z,11.50
2023-11-13T17:25:30.671Z,14.80
2023-11-13T17:28:03.766Z,7.75
2023-11-13T17:30:39.105Z,8.80
2023-11-13T17:33:11.860Z,11.77
2023-11-13T17:35:44.604Z,10.40
2023-11-13T17:38:17.413Z,14.23
2023-11-13T17:40:50.406Z,14.55
2023-11-13T17:43:23.307Z,7.53
2023-11-13T17:45:58.459Z,13.80
2023-11-13T17:48:32.413Z,13.63
2023-11-13T17:51:06.623Z,16.15
2023-11-13T17:53:39.416Z,14.43
2023-11-13T17:56:12.278Z,12.75
2023-11-13T17:58:45.370Z,14.00
2023-11-13T18:01:21.746Z,10.50
2023-11-13T18:03:55.782Z,14.90
2023-11-13T18:06:31.731Z,10.98
2023-11-13T18:09:05.043Z,9.50
2023-11-13T18:11:44.200Z,13.27
2023-11-13T18:14:17.250Z,10.55
2023-11-13T18:21:58.153Z,17.55
2023-11-13T18:24:30.961Z,13.63
2023-11-13T18:27:03.851Z,18.00
2023-11-13T18:29:37.229Z,13.38
2023-11-13T18:34:43.951Z,17.30
2023-11-13T18:37:16.808Z,16.02
2023-11-13T18:39:51.548Z,11.27
2023-11-13T18:42:24.389Z,10.20
2023-11-13T18:44:58.195Z,13.13
2023-11-13T18:47:31.565Z,12.60
2023-11-13T18:50:05.513Z,15.57
2023-11-13T18:52:38.781Z,12.05
2023-11-13T18:55:11.734Z,12.93
2023-11-13T18:57:44.486Z,15.85
2023-11-13T19:00:19.097Z,13.48
2023-11-13T19:02:52.340Z,17.92
2023-11-13T19:05:25.256Z,20.48
2023-11-13T19:07:58.222Z,18.15
2023-11-13T19:13:06.224Z,20.88
2023-11-13T19:15:42.245Z,20.42
2023-11-13T19:18:17.014Z,21.33
2023-11-13T19:20:50.211Z,21.55
2023-11-13T19:23:23.912Z,20.27
2023-11-13T19:25:56.691Z,12.82
2023-11-13T19:28:30.294Z,16.35
2023-11-13T19:31:03.800Z,20.63
2023-11-13T19:33:37.080Z,14.50
2023-11-13T19:38:44.896Z,14.32
2023-11-13T19:41:18.074Z,15.10
2023-11-13T19:43:51.224Z,14.32
2023-11-13T19:46:24.459Z,12.95
2023-11-13T19:48:57.632Z,14.00
2023-11-13T19:54:05.142Z,15.68
2023-11-13T19:56:38.461Z,9.95
2023-11-13T19:59:11.525Z,11.52
2023-11-13T20:04:17.834Z,10.68
2023-11-13T20:06:50.887Z,10.32
2023-11-13T20:11:57.338Z,11.57
2023-11-13T20:14:30.898Z,15.52
2023-11-13T20:17:06.583Z,15.82
2023-11-13T20:19:43.027Z,17.63
2023-11-13T20:22:19.815Z,15.07
2023-11-13T20:24:54.032Z,14.95
2023-11-13T20:27:27.056Z,13.07
2023-11-13T20:30:04.717Z,16.65
2023-11-13T20:32:40.532Z,13.55
2023-11-13T20:35:14.407Z,10.60
2023-11-13T20:37:47.167Z,12.20
2023-11-13T20:40:20.154Z,13.77
2023-11-13T20:42:52.934Z,17.45
2023-11-13T20:45:25.923Z,13.82
2023-11-13T20:48:00.562Z,20.60
2023-11-13T20:50:33.828Z,11.50
2023-11-13T20:53:08.041Z,12.57
2023-11-13T20:55:41.089Z,12.23
2023-11-13T20:58:15.076Z,19.17
2023-11-13T21:00:51.447Z,14.82
2023-11-13T21:03:25.437Z,16.23
2023-11-13T21:06:07.451Z,12.68
2023-11-13T21:08:41.240Z,20.45
2023-11-13T21:11:16.891Z,14.43
2023-11-13T21:13:50.212Z,21.42
2023-11-13T21:16:23.779Z,12.73
2023-11-13T21:19:00.410Z,17.52
2023-11-13T21:21:33.830Z,15.52
2023-11-13T21:24:10.645Z,11.20
2023-11-13T21:26:43.463Z,15.30
2023-11-13T21:29:16.445Z,12.20
2023-11-13T21:31:50.457Z,21.00
2023-11-13T21:34:23.332Z,20.42
2023-11-13T21:36:56.175Z,17.85
2023-11-13T21:39:30.096Z,11.45
2023-11-13T21:42:02.998Z,9.65
2023-11-13T21:44:36.218Z,12.52
2023-11-13T21:47:09.542Z,13.63
2023-11-13T21:49:45.230Z,16.95
2023-11-13T21:52:18.018Z,14.45
2023-11-13T21:54:52.974Z,10.43
2023-11-13T21:57:25.769Z,11.52
2023-11-13T21:59:59.865Z,14.75
2023-11-13T22:02:36.343Z,16.45
2023-11-13T22:05:09.871Z,11.57
2023-11-13T22:07:42.813Z,9.20
2023-11-13T22:10:15.692Z,10.55
2023-11-13T22:12:48.762Z,12.32
2023-11-13T22:15:23.085Z,16.20
2023-11-13T22:17:55.962Z,13.00
2023-11-13T22:20:29.773Z,13.50
2023-11-13T22:23:04.279Z,11.00
2023-11-13T22:25:38.012Z,11.07
2023-11-13T22:28:10.809Z,11.45
2023-11-13T22:30:44.043Z,16.10
2023-11-13T22:33:17.028Z,7.57
2023-11-13T22:35:49.994Z,14.95
2023-11-13T22:38:22.954Z,15.13
2023-11-13T22:40:55.750Z,14.38
2023-11-13T22:43:28.760Z,16.27
2023-11-13T22:46:01.687Z,12.30
2023-11-13T22:51:07.351Z,19.25
2023-11-13T22:53:40.151Z,11.13
2023-11-13T22:56:12.913Z,9.43
2023-11-13T22:58:53.120Z,11.93
2023-11-13T23:01:27.196Z,8.35
2023-11-13T23:04:00.139Z,7.55
2023-11-13T23:06:34.484Z,7.05
2023-11-13T23:09:07.405Z,9.77
2023-11-13T23:11:40.188Z,11.60
2023-11-13T23:14:12.982Z,12.00
2023-11-13T23:16:45.890Z,8.65
2023-11-13T23:19:18.643Z,7.75
2023-11-13T23:22:01.891Z,5.35
2023-11-13T23:24:37.055Z,7.82
2023-11-13T23:27:10.361Z,10.35
2023-11-13T23:29:43.214Z,9.40
2023-11-13T23:32:16.045Z,7.30
2023-11-13T23:34:49.419Z,8.95
2023-11-13T23:37:23.761Z,8.77
2023-11-13T23:40:02.467Z,10.48
2023-11-13T23:42:35.232Z,6.20
2023-11-13T23:45:09.758Z,15.32
2023-11-13T23:47:45.667Z,9.43
2023-11-13T23:50:20.880Z,8.90
2023-11-13T23:52:53.690Z,8.80
2023-11-13T23:55:26.509Z,10.45
2023-11-13T23:57:59.543Z,11.25
